Time;durP1;ratioP1;P1;durP2;ratioP2;P2;SDS_P1;SDS_P2;PMS_P1;PMS_P2;Temp;Humidity;BMP_temperature;BMP_pressure;BME280_temperature;BME280_humidity;BME280_pressure;Samples;Min_cycle;Max_cycle;Signal;HPM_P1;HPM_P2
2023/01/20 00:00:25;;;;;;;37.20;20.48;;;-3.50;99.90;;;;;;5032916;28;20057;-50
2023/01/20 00:02:51;;;;;;;31.73;20.33;;;-3.60;99.90;;;;;;5031506;28;20045;-50
2023/01/20 00:05:17;;;;;;;36.10;20.95;;;-3.70;99.90;;;;;;5032898;28;20582;-52
2023/01/20 00:07:42;;;;;;;34.70;18.92;;;-3.70;99.90;;;;;;5032697;28;20028;-52
2023/01/20 00:10:09;;;;;;;29.65;18.52;;;-3.70;99.90;;;;;;5032852;28;20025;-52
2023/01/20 00:12:34;;;;;;;38.08;19.45;;;-3.70;99.90;;;;;;5032848;28;20041;-56
2023/01/20 00:15:00;;;;;;;26.65;17.77;;;-3.70;99.90;;;;;;5031375;28;20034;-51
2023/01/20 00:17:27;;;;;;;26.85;17.90;;;-3.70;99.90;;;;;;5032682;28;20037;-54
2023/01/20 00:19:54;;;;;;;27.13;18.58;;;-3.70;99.90;;;;;;5032552;28;20060;-55
2023/01/20 00:22:20;;;;;;;32.35;19.30;;;-3.70;99.90;;;;;;5032630;28;20049;-50
2023/01/20 00:24:46;;;;;;;28.17;17.88;;;-3.70;99.90;;;;;;5032454;28;20022;-54
2023/01/20 00:27:12;;;;;;;33.15;18.33;;;-3.60;99.90;;;;;;5032661;28;20022;-53
2023/01/20 00:29:37;;;;;;;27.60;16.65;;;-3.70;99.90;;;;;;5032298;28;20041;-53
2023/01/20 00:32:03;;;;;;;25.40;16.92;;;-3.70;99.90;;;;;;5032310;28;20037;-52
2023/01/20 00:34:29;;;;;;;28.02;18.80;;;-3.70;99.90;;;;;;5032496;28;20025;-54
2023/01/20 00:36:54;;;;;;;23.45;16.85;;;-3.60;99.90;;;;;;5032286;28;20037;-53
2023/01/20 00:39:20;;;;;;;26.77;16.67;;;-3.60;99.90;;;;;;5032338;28;20030;-53
2023/01/20 00:41:46;;;;;;;26.35;17.83;;;-3.60;99.90;;;;;;5032075;28;20033;-52
2023/01/20 00:44:11;;;;;;;26.95;17.25;;;-3.60;99.90;;;;;;5032358;28;20029;-52
2023/01/20 00:46:37;;;;;;;29.40;18.30;;;-3.60;99.90;;;;;;5031955;28;20073;-54
2023/01/20 00:49:18;;;;;;;23.77;17.25;;;-3.70;99.90;;;;;;5009585;28;20140;-52
2023/01/20 00:51:43;;;;;;;24.52;16.73;;;-3.70;99.90;;;;;;5031870;28;20171;-51
2023/01/20 00:54:09;;;;;;;28.88;16.80;;;-3.80;99.90;;;;;;5032213;28;20056;-53
2023/01/20 00:56:34;;;;;;;22.38;16.33;;;-3.80;99.90;;;;;;5032121;28;20503;-55
2023/01/20 00:59:00;;;;;;;25.88;15.93;;;-3.80;99.90;;;;;;5031937;28;20018;-56
2023/01/20 01:01:26;;;;;;;23.75;16.05;;;-3.80;99.90;;;;;;5031877;28;20041;-56
2023/01/20 01:03:53;;;;;;;26.05;16.98;;;-3.80;99.90;;;;;;5031782;28;20026;-53
2023/01/20 01:06:19;;;;;;;21.70;15.20;;;-3.80;99.90;;;;;;5031821;28;20108;-50
2023/01/20 01:08:45;;;;;;;22.05;15.38;;;-3.90;99.90;;;;;;5031815;28;20045;-54
2023/01/20 01:11:12;;;;;;;28.05;18.55;;;-3.90;99.90;;;;;;5031890;28;20408;-55
2023/01/20 01:13:38;;;;;;;30.50;18.55;;;-4.00;99.90;;;;;;5031699;28;20034;-53
2023/01/20 01:16:14;;;;;;;22.48;17.30;;;-4.00;99.90;;;;;;5031528;28;20018;-50
2023/01/20 01:18:40;;;;;;;27.98;17.85;;;-4.00;99.90;;;;;;5030231;28;20037;-53
2023/01/20 01:21:08;;;;;;;33.15;18.52;;;-4.00;99.90;;;;;;5031684;28;20392;-51
2023/01/20 01:23:33;;;;;;;26.80;17.17;;;-4.00;99.90;;;;;;5031602;28;20053;-53
2023/01/20 01:25:59;;;;;;;33.88;18.23;;;-4.00;99.90;;;;;;5031660;28;20515;-52
2023/01/20 01:28:24;;;;;;;30.88;18.60;;;-4.00;99.90;;;;;;5031792;28;20148;-50
2023/01/20 01:30:50;;;;;;;31.63;19.50;;;-4.00;99.90;;;;;;5031255;28;20112;-52
2023/01/20 01:33:16;;;;;;;33.08;18.63;;;-4.00;99.90;;;;;;5031434;28;20436;-54
2023/01/20 01:35:41;;;;;;;26.25;18.50;;;-4.00;99.90;;;;;;5031450;28;20556;-50
2023/01/20 01:38:07;;;;;;;30.10;18.20;;;-4.00;99.90;;;;;;5031507;28;20057;-54
2023/01/20 01:40:33;;;;;;;34.00;16.77;;;-4.00;99.90;;;;;;5031571;28;20048;-51
2023/01/20 01:42:59;;;;;;;27.55;16.80;;;-4.10;99.90;;;;;;5031297;28;20044;-52
2023/01/20 01:45:27;;;;;;;27.52;17.05;;;-4.10;99.90;;;;;;5034439;28;20033;-53
2023/01/20 01:48:08;;;;;;;26.88;18.55;;;-4.10;99.90;;;;;;5035284;28;20108;-52
2023/01/20 01:50:54;;;;;;;29.40;17.67;;;-4.10;99.90;;;;;;5035287;28;20037;-56
2023/01/20 01:53:21;;;;;;;26.83;17.80;;;-4.20;99.90;;;;;;5035370;28;20033;-52
2023/01/20 01:55:52;;;;;;;29.73;17.85;;;-4.10;99.90;;;;;;5035177;28;20025;-50
2023/01/20 01:58:23;;;;;;;25.65;18.13;;;-4.10;99.90;;;;;;5035383;28;20018;-53
2023/01/20 02:00:49;;;;;;;29.15;19.40;;;-4.10;99.90;;;;;;5035291;28;20572;-53
2023/01/20 02:03:15;;;;;;;32.92;20.08;;;-4.10;99.90;;;;;;5033907;28;20026;-53
2023/01/20 02:05:42;;;;;;;25.08;17.85;;;-4.10;99.90;;;;;;5035073;28;20052;-54
2023/01/20 02:08:08;;;;;;;20.85;16.90;;;-4.10;99.90;;;;;;5035169;28;20021;-50
2023/01/20 02:10:34;;;;;;;30.45;18.95;;;-4.10;99.90;;;;;;5035083;28;20384;-55
2023/01/20 02:13:00;;;;;;;29.95;20.27;;;-4.10;99.90;;;;;;5034820;28;20029;-51
2023/01/20 02:15:39;;;;;;;28.88;19.27;;;-4.00;99.90;;;;;;5035130;28;20033;-53
2023/01/20 02:18:11;;;;;;;29.23;18.23;;;-4.10;99.90;;;;;;5035163;28;20385;-50
2023/01/20 02:20:48;;;;;;;40.33;18.35;;;-4.10;99.90;;;;;;5034825;28;20024;-50
2023/01/20 02:23:47;;;;;;;29.00;19.23;;;-4.10;99.90;;;;;;5034890;28;20040;-50
2023/01/20 02:26:21;;;;;;;26.80;18.05;;;-4.10;99.90;;;;;;5034982;28;20467;-53
2023/01/20 02:29:22;;;;;;;29.92;18.92;;;-4.00;99.90;;;;;;5034628;28;20037;-51
2023/01/20 02:32:19;;;;;;;31.48;18.98;;;-4.00;99.90;;;;;;5011467;28;20029;-52
2023/01/20 02:35:19;;;;;;;27.85;18.30;;;-4.00;99.90;;;;;;5025261;28;20034;-52
2023/01/20 02:37:46;;;;;;;27.67;18.95;;;-4.00;99.90;;;;;;5025479;28;20041;-55
2023/01/20 02:40:37;;;;;;;31.65;20.90;;;-3.90;99.90;;;;;;5034711;28;20022;-54
2023/01/20 02:43:22;;;;;;;31.70;19.90;;;-3.80;99.90;;;;;;5034512;28;20415;-54
2023/01/20 02:46:03;;;;;;;27.27;16.42;;;-3.80;99.90;;;;;;5034115;28;20045;-56
2023/01/20 02:48:51;;;;;;;22.00;15.60;;;-3.70;99.90;;;;;;5034427;28;20025;-50
2023/01/20 02:51:25;;;;;;;26.15;15.80;;;-3.60;99.90;;;;;;5034570;28;20029;-51
2023/01/20 02:54:03;;;;;;;20.70;13.73;;;-3.50;99.90;;;;;;5034250;28;20036;-51
2023/01/20 02:56:30;;;;;;;20.88;14.77;;;-3.40;99.90;;;;;;5033017;28;20047;-52
2023/01/20 02:59:07;;;;;;;20.45;13.98;;;-3.40;99.90;;;;;;5034112;28;20036;-52
2023/01/20 03:01:41;;;;;;;20.05;13.23;;;-3.30;99.90;;;;;;5034258;28;20022;-52
2023/01/20 03:04:10;;;;;;;18.85;14.10;;;-3.30;99.90;;;;;;5034163;28;20056;-56
2023/01/20 03:06:46;;;;;;;18.17;13.05;;;-3.20;99.90;;;;;;5033968;28;20072;-54
2023/01/20 03:09:15;;;;;;;21.60;13.55;;;-3.20;99.90;;;;;;5034060;28;20022;-53
2023/01/20 03:11:48;;;;;;;20.52;13.77;;;-3.10;99.90;;;;;;5033801;28;20018;-50
2023/01/20 03:14:14;;;;;;;25.02;14.60;;;-3.10;99.90;;;;;;5033832;28;20032;-50
2023/01/20 03:16:40;;;;;;;21.60;15.20;;;-3.10;99.90;;;;;;5033845;28;20030;-51
2023/01/20 03:19:07;;;;;;;23.13;12.82;;;-2.90;99.90;;;;;;5033884;28;20029;-52
2023/01/20 03:21:33;;;;;;;18.58;13.35;;;-2.80;99.90;;;;;;5032587;28;20021;-53
2023/01/20 03:24:01;;;;;;;19.52;12.13;;;-2.80;99.90;;;;;;5033782;28;20032;-51
2023/01/20 03:26:27;;;;;;;19.33;11.50;;;-2.80;99.90;;;;;;5033741;28;20091;-52
2023/01/20 03:28:53;;;;;;;14.50;11.45;;;-2.80;99.90;;;;;;5033478;28;20445;-56
2023/01/20 03:31:24;;;;;;;14.48;10.32;;;-2.80;99.90;;;;;;5033609;28;20116;-58
2023/01/20 03:33:53;;;;;;;22.65;11.35;;;-2.70;99.90;;;;;;5033494;28;20116;-54
2023/01/20 03:36:21;;;;;;;18.13;11.82;;;-2.70;99.90;;;;;;5033671;28;20369;-50
2023/01/20 03:38:48;;;;;;;15.80;11.65;;;-2.70;99.90;;;;;;5033285;28;20017;-53
2023/01/20 03:41:13;;;;;;;19.02;10.98;;;-2.70;99.90;;;;;;5033561;28;20018;-50
2023/01/20 03:43:42;;;;;;;13.57;10.13;;;-2.60;99.90;;;;;;5033262;28;20025;-54
2023/01/20 03:46:33;;;;;;;15.93;11.13;;;-2.60;99.90;;;;;;5033826;28;20041;-51
2023/01/20 03:49:15;;;;;;;16.02;10.57;;;-2.60;99.90;;;;;;5032968;28;20025;-57
2023/01/20 03:52:02;;;;;;;15.98;10.43;;;-2.60;99.90;;;;;;5032743;28;20025;-54
2023/01/20 03:54:36;;;;;;;15.65;11.10;;;-2.60;99.90;;;;;;5031814;28;20527;-52
2023/01/20 03:57:09;;;;;;;;;;;-2.60;99.90;;;;;;5032495;28;20075;-52
2023/01/20 03:59:39;;;;;;;13.23;11.13;;;-2.60;99.90;;;;;;5032112;28;20364;-51
2023/01/20 04:02:07;;;;;;;15.50;11.68;;;-2.50;99.90;;;;;;5032115;28;20032;-51
2023/01/20 04:04:36;;;;;;;20.42;12.40;;;-2.50;99.90;;;;;;5032264;28;20396;-56
2023/01/20 04:07:09;;;;;;;19.23;12.70;;;-2.50;99.90;;;;;;5032599;28;20036;-53
2023/01/20 04:09:39;;;;;;;18.30;11.73;;;-2.50;99.90;;;;;;5032859;28;20025;-56
2023/01/20 04:12:05;;;;;;;16.02;12.07;;;-2.40;99.90;;;;;;5032803;28;20037;-50
2023/01/20 04:14:33;;;;;;;17.25;12.10;;;-2.40;99.90;;;;;;5032802;28;20022;-50
2023/01/20 04:16:58;;;;;;;21.65;14.02;;;-2.40;99.90;;;;;;5032662;28;20397;-50
2023/01/20 04:19:25;;;;;;;28.75;17.42;;;-2.40;99.90;;;;;;5032781;28;20047;-56
2023/01/20 04:22:18;;;;;;;18.55;13.57;;;-2.40;99.90;;;;;;5032597;28;20028;-53
2023/01/20 04:24:48;;;;;;;19.38;13.40;;;-2.40;99.90;;;;;;5032472;28;20025;-52
2023/01/20 04:27:13;;;;;;;17.70;13.73;;;-2.40;99.90;;;;;;5032643;28;20491;-50
2023/01/20 04:29:40;;;;;;;18.30;12.63;;;-2.30;99.90;;;;;;5032279;28;20037;-57
2023/01/20 04:32:06;;;;;;;22.60;13.68;;;-2.30;99.90;;;;;;5032429;28;20029;-52
2023/01/20 04:34:31;;;;;;;22.85;14.10;;;-2.30;99.90;;;;;;5032566;28;20346;-52
2023/01/20 04:36:57;;;;;;;27.83;14.40;;;-2.30;99.90;;;;;;5032343;28;20034;-51
2023/01/20 04:39:23;;;;;;;20.13;13.77;;;-2.30;99.90;;;;;;5032422;28;20057;-52
2023/01/20 04:41:49;;;;;;;19.77;14.70;;;-2.40;99.90;;;;;;5032312;28;20055;-50
2023/01/20 04:44:15;;;;;;;21.92;13.68;;;-2.30;99.90;;;;;;5032440;28;20036;-51
2023/01/20 04:46:40;;;;;;;19.67;14.18;;;-2.30;99.90;;;;;;5031805;28;20492;-53
2023/01/20 04:49:06;;;;;;;19.70;14.25;;;-2.30;99.90;;;;;;5032249;28;20633;-53
2023/01/20 04:51:32;;;;;;;22.40;13.67;;;-2.30;99.90;;;;;;5031820;28;20026;-53
2023/01/20 04:53:58;;;;;;;18.95;13.50;;;-2.20;99.90;;;;;;5031851;28;20057;-56
2023/01/20 04:56:25;;;;;;;23.80;13.77;;;-2.20;99.90;;;;;;5032128;28;20405;-51
2023/01/20 04:58:51;;;;;;;18.63;12.75;;;-2.20;99.90;;;;;;5031968;28;20364;-54
2023/01/20 05:01:17;;;;;;;19.17;13.23;;;-2.20;99.90;;;;;;5031938;28;20492;-50
2023/01/20 05:03:42;;;;;;;22.15;14.65;;;-2.30;99.90;;;;;;5030429;28;20108;-55
2023/01/20 05:06:10;;;;;;;18.83;14.07;;;-2.30;99.90;;;;;;5031920;28;20108;-53
2023/01/20 05:08:35;;;;;;;23.70;13.98;;;-2.30;99.90;;;;;;5031623;28;20430;-57
2023/01/20 05:11:01;;;;;;;20.55;14.75;;;-2.30;99.90;;;;;;5031852;28;20056;-51
2023/01/20 05:13:27;;;;;;;20.48;13.77;;;-2.30;99.90;;;;;;5031834;28;20076;-52
2023/01/20 05:15:53;;;;;;;20.33;14.63;;;-2.30;99.90;;;;;;5031612;28;20076;-52
2023/01/20 05:18:18;;;;;;;22.13;13.55;;;-2.20;99.90;;;;;;5031390;28;20018;-54
2023/01/20 05:20:46;;;;;;;24.15;15.07;;;-2.20;99.90;;;;;;5031380;28;20030;-52
2023/01/20 05:23:11;;;;;;;20.73;13.77;;;-2.20;99.90;;;;;;5031670;28;20017;-52
2023/01/20 05:25:37;;;;;;;18.75;12.70;;;-2.20;99.90;;;;;;5031353;28;20033;-53
2023/01/20 05:28:04;;;;;;;19.98;12.60;;;-2.20;99.90;;;;;;5031483;28;20424;-52
2023/01/20 05:30:29;;;;;;;22.73;15.45;;;-2.20;99.90;;;;;;5031677;28;20037;-55
2023/01/20 05:32:55;;;;;;;18.73;14.00;;;-2.20;99.90;;;;;;5031293;28;20031;-52
2023/01/20 05:35:21;;;;;;;20.48;14.35;;;-2.20;99.90;;;;;;5031568;28;20049;-53
2023/01/20 05:37:47;;;;;;;21.80;15.07;;;-2.10;99.90;;;;;;5031390;28;20026;-56
2023/01/20 05:40:13;;;;;;;22.70;15.38;;;-2.10;99.90;;;;;;5031468;28;20026;-51
2023/01/20 05:42:39;;;;;;;24.05;14.60;;;-2.00;99.90;;;;;;5031316;28;20053;-55
2023/01/20 05:45:05;;;;;;;22.55;14.18;;;-2.00;99.90;;;;;;5031465;28;20112;-51
2023/01/20 05:47:31;;;;;;;24.58;14.95;;;-2.00;99.90;;;;;;5031282;28;20488;-54
2023/01/20 05:49:56;;;;;;;17.20;13.65;;;-2.00;99.90;;;;;;5031269;28;20039;-51
2023/01/20 05:52:22;;;;;;;20.58;15.05;;;-1.90;99.90;;;;;;5031388;28;20040;-51
2023/01/20 05:55:00;;;;;;;19.95;14.68;;;-1.90;99.90;;;;;;5031154;28;20021;-54
2023/01/20 05:57:26;;;;;;;23.42;13.60;;;-1.80;99.90;;;;;;5031325;28;20031;-53
2023/01/20 05:59:51;;;;;;;16.63;13.32;;;-1.80;99.90;;;;;;5031188;28;20021;-52
2023/01/20 06:02:18;;;;;;;18.63;14.60;;;-1.80;99.90;;;;;;5030083;28;20029;-54
2023/01/20 06:04:47;;;;;;;19.50;13.63;;;-1.80;99.90;;;;;;5026359;28;20057;-55
2023/01/20 06:07:14;;;;;;;18.35;14.18;;;-1.70;99.90;;;;;;5030293;28;20464;-52
2023/01/20 06:09:40;;;;;;;22.73;14.73;;;-1.80;99.90;;;;;;5030684;28;20116;-54
2023/01/20 06:12:06;;;;;;;18.55;13.90;;;-1.80;99.90;;;;;;5031199;28;20022;-55
2023/01/20 06:14:31;;;;;;;21.80;14.93;;;-1.70;99.90;;;;;;5030898;28;20072;-57
2023/01/20 06:16:57;;;;;;;23.75;15.93;;;-1.80;99.90;;;;;;5030788;28;20449;-57
2023/01/20 06:19:23;;;;;;;20.90;15.27;;;-1.80;99.90;;;;;;5030851;28;20033;-51
2023/01/20 06:21:48;;;;;;;20.33;15.00;;;-1.80;99.90;;;;;;5030963;28;20072;-51
2023/01/20 06:24:14;;;;;;;20.25;15.55;;;-1.80;99.90;;;;;;5030298;28;20026;-57
2023/01/20 06:26:39;;;;;;;21.52;16.02;;;-1.90;99.90;;;;;;5030676;28;20406;-53
2023/01/20 06:29:05;;;;;;;22.08;16.38;;;-1.80;99.90;;;;;;5030765;28;20022;-53
2023/01/20 06:31:31;;;;;;;28.42;18.25;;;-1.90;99.90;;;;;;5033982;28;20045;-54
2023/01/20 06:33:56;;;;;;;25.45;16.10;;;-1.90;99.90;;;;;;5034337;28;20029;-55
2023/01/20 06:36:23;;;;;;;22.92;17.52;;;-1.90;99.90;;;;;;5034345;28;20027;-53
2023/01/20 06:38:49;;;;;;;24.13;17.05;;;-1.80;99.90;;;;;;5034330;28;20026;-54
2023/01/20 06:41:16;;;;;;;28.50;17.95;;;-1.80;99.90;;;;;;5033902;28;20452;-52
2023/01/20 06:43:42;;;;;;;25.13;17.88;;;-1.70;99.90;;;;;;5033032;28;20060;-54
2023/01/20 06:46:13;;;;;;;25.58;17.85;;;-1.70;99.90;;;;;;5034183;28;20042;-58
2023/01/20 06:48:39;;;;;;;24.30;17.95;;;-1.60;99.90;;;;;;5034328;28;20113;-54
2023/01/20 06:51:14;;;;;;;23.95;17.70;;;-1.60;99.90;;;;;;5034357;28;20436;-55
2023/01/20 06:53:40;;;;;;;21.80;17.10;;;-1.60;99.90;;;;;;5034003;28;20037;-56
2023/01/20 06:56:06;;;;;;;23.73;18.30;;;-1.60;99.90;;;;;;5034207;28;20022;-55
2023/01/20 06:58:32;;;;;;;19.33;15.07;;;-1.60;99.90;;;;;;5033665;28;20022;-51
2023/01/20 07:01:05;;;;;;;26.27;19.77;;;-1.60;99.90;;;;;;5033967;28;20029;-55
2023/01/20 07:03:31;;;;;;;27.73;19.58;;;-1.60;99.90;;;;;;5034086;28;20017;-57
2023/01/20 07:06:01;;;;;;;27.00;17.60;;;-1.50;99.90;;;;;;5033399;28;20075;-54
2023/01/20 07:08:28;;;;;;;24.90;18.15;;;-1.50;99.90;;;;;;5033957;28;20033;-56
2023/01/20 07:10:53;;;;;;;26.13;18.08;;;-1.50;99.90;;;;;;5032428;28;20037;-57
2023/01/20 07:13:19;;;;;;;23.83;17.60;;;-1.50;99.90;;;;;;5034173;28;20040;-51
2023/01/20 07:15:44;;;;;;;24.35;17.02;;;-1.50;99.90;;;;;;5033610;28;20017;-54
2023/01/20 07:18:10;;;;;;;24.08;17.75;;;-1.50;99.90;;;;;;5033754;28;20075;-57
2023/01/20 07:20:37;;;;;;;28.13;18.67;;;-1.50;99.90;;;;;;5033424;28;20073;-53
2023/01/20 07:23:03;;;;;;;30.33;19.60;;;-1.40;99.90;;;;;;5033769;28;20404;-55
2023/01/20 07:25:29;;;;;;;23.80;18.15;;;-1.50;99.90;;;;;;5033050;28;20032;-54
2023/01/20 07:27:56;;;;;;;23.70;18.42;;;-1.40;99.90;;;;;;5033174;28;20060;-57
2023/01/20 07:30:22;;;;;;;34.33;17.75;;;-1.30;99.90;;;;;;5033553;28;20018;-54
2023/01/20 07:32:48;;;;;;;28.63;19.20;;;-1.30;99.90;;;;;;5032684;28;20076;-56
2023/01/20 07:35:14;;;;;;;23.90;17.85;;;-1.20;99.90;;;;;;5032119;28;20393;-52
2023/01/20 07:37:40;;;;;;;22.17;17.73;;;-1.20;99.90;;;;;;5032013;28;20025;-53
2023/01/20 07:40:06;;;;;;;21.95;17.75;;;-1.20;99.90;;;;;;5033315;28;20026;-59
2023/01/20 07:42:32;;;;;;;27.20;19.58;;;-1.20;99.90;;;;;;5032521;28;20357;-53
2023/01/20 07:44:58;;;;;;;26.85;19.20;;;-1.10;99.90;;;;;;5031764;28;20033;-60
2023/01/20 07:47:23;;;;;;;26.38;19.83;;;-1.10;99.90;;;;;;5033075;28;20045;-55
2023/01/20 07:49:49;;;;;;;27.05;19.20;;;-1.00;99.90;;;;;;5032485;28;20018;-56
2023/01/20 07:52:14;;;;;;;25.70;18.65;;;-1.00;99.90;;;;;;5033260;28;20700;-56
2023/01/20 07:54:40;;;;;;;25.05;19.75;;;-1.00;99.90;;;;;;5033068;28;20029;-57
2023/01/20 07:57:07;;;;;;;24.15;18.00;;;-1.00;99.90;;;;;;5033007;28;20017;-54
2023/01/20 07:59:33;;;;;;;25.17;18.35;;;-1.00;99.90;;;;;;5033003;28;20025;-51
2023/01/20 08:01:58;;;;;;;31.55;19.13;;;-0.90;99.90;;;;;;5032645;28;20030;-52
2023/01/20 08:04:24;;;;;;;25.98;18.85;;;-0.90;99.90;;;;;;5032415;28;20029;-55
2023/01/20 08:06:50;;;;;;;24.67;17.83;;;-0.80;99.90;;;;;;5032347;28;20025;-53
2023/01/20 08:09:15;;;;;;;25.80;17.75;;;-0.80;99.90;;;;;;5031735;28;20035;-50
2023/01/20 08:11:41;;;;;;;26.10;17.88;;;-0.80;99.90;;;;;;5031083;28;20025;-54
2023/01/20 08:14:07;;;;;;;29.63;19.70;;;-0.80;99.90;;;;;;5031471;28;20022;-54
2023/01/20 08:16:32;;;;;;;24.50;18.88;;;-0.70;99.90;;;;;;5031074;28;20036;-55
2023/01/20 08:18:58;;;;;;;26.20;18.35;;;-0.70;99.90;;;;;;5031227;28;20027;-50
2023/01/20 08:21:29;;;;;;;31.20;19.77;;;-0.80;99.90;;;;;;5031187;28;20481;-52
2023/01/20 08:23:57;;;;;;;22.77;17.70;;;-0.70;99.90;;;;;;5028145;28;20033;-52
2023/01/20 08:26:27;;;;;;;26.83;19.67;;;-0.70;99.90;;;;;;5017699;28;20032;-55
2023/01/20 08:28:52;;;;;;;25.20;18.38;;;-0.60;99.90;;;;;;5029649;28;20503;-53
2023/01/20 08:31:20;;;;;;;22.88;17.10;;;-0.60;99.90;;;;;;5029698;28;20025;-53
2023/01/20 08:33:46;;;;;;;25.98;17.92;;;-0.50;99.90;;;;;;5030424;28;20072;-52
2023/01/20 08:36:16;;;;;;;22.98;17.85;;;-0.40;99.90;;;;;;5030883;28;20051;-55
2023/01/20 08:38:42;;;;;;;24.30;17.33;;;-0.40;99.90;;;;;;5030637;28;20025;-53
2023/01/20 08:41:10;;;;;;;25.77;17.67;;;-0.30;99.90;;;;;;5029121;28;20022;-51
2023/01/20 08:43:36;;;;;;;24.25;16.77;;;-0.30;99.90;;;;;;5030710;28;20387;-54
2023/01/20 08:46:05;;;;;;;22.95;16.70;;;-0.30;99.90;;;;;;5030376;28;20041;-53
2023/01/20 08:48:32;;;;;;;34.88;21.98;;;-0.20;99.90;;;;;;5031021;28;20112;-51
2023/01/20 08:50:57;;;;;;;41.60;23.70;;;-0.20;99.90;;;;;;5030492;28;20037;-56
2023/01/20 08:53:23;;;;;;;27.88;18.75;;;-0.20;99.90;;;;;;5029893;28;20044;-51
2023/01/20 08:55:57;;;;;;;19.60;15.98;;;0.00;99.90;;;;;;5029243;28;20384;-50
2023/01/20 08:58:23;;;;;;;82.45;35.65;;;0.10;99.90;;;;;;5030035;28;20480;-57
2023/01/20 09:00:48;;;;;;;23.17;16.88;;;-0.10;99.90;;;;;;5030032;28;20094;-56
2023/01/20 09:03:14;;;;;;;37.97;22.05;;;0.00;99.90;;;;;;5030378;28;20100;-56
2023/01/20 09:05:40;;;;;;;21.35;16.38;;;-0.10;99.90;;;;;;5030401;28;20079;-51
2023/01/20 09:08:06;;;;;;;21.00;15.88;;;0.00;99.90;;;;;;5030474;28;20362;-53
2023/01/20 09:10:32;;;;;;;22.83;16.38;;;0.10;99.90;;;;;;5030529;28;20044;-56
2023/01/20 09:12:58;;;;;;;27.23;16.95;;;0.10;99.90;;;;;;5030307;28;20037;-54
2023/01/20 09:15:24;;;;;;;26.52;18.55;;;0.00;99.90;;;;;;5030103;28;20144;-51
2023/01/20 09:17:49;;;;;;;24.55;18.05;;;-0.10;99.90;;;;;;5030131;28;20025;-55
2023/01/20 09:20:15;;;;;;;25.95;17.73;;;-0.20;99.90;;;;;;5030386;28;20025;-52
2023/01/20 09:22:41;;;;;;;26.00;18.20;;;0.00;99.90;;;;;;5029726;28;20021;-56
2023/01/20 09:25:08;;;;;;;32.13;19.50;;;0.00;99.90;;;;;;5030288;28;20484;-52
2023/01/20 09:27:34;;;;;;;25.80;18.15;;;0.00;99.90;;;;;;5030082;28;20030;-56
2023/01/20 09:30:00;;;;;;;28.80;19.48;;;0.20;99.90;;;;;;5030046;28;20036;-51
2023/01/20 09:32:26;;;;;;;23.33;17.40;;;0.00;99.90;;;;;;5030161;28;20473;-53
2023/01/20 09:34:51;;;;;;;23.23;17.35;;;0.20;99.90;;;;;;5029588;28;20393;-56
2023/01/20 09:43:53;;;;;;;24.05;18.90;;;0.20;99.90;;;;;;5030350;28;20163;-51
2023/01/20 09:53:15;;;;;;;27.98;18.50;;;0.50;99.90;;;;;;5030838;28;20041;-54
2023/01/20 09:55:51;;;;;;;26.75;19.33;;;0.60;99.90;;;;;;5030872;28;20029;-55
2023/01/20 09:58:39;;;;;;;21.35;17.77;;;0.80;99.90;;;;;;5030865;28;20018;-52
2023/01/20 10:01:20;;;;;;;25.85;19.40;;;0.80;99.90;;;;;;5030641;28;20040;-54
2023/01/20 10:04:07;;;;;;;28.20;18.58;;;0.90;99.90;;;;;;5030755;28;20416;-57
2023/01/20 10:06:44;;;;;;;21.33;16.90;;;0.80;99.90;;;;;;5034198;28;20060;-51
2023/01/20 10:09:23;;;;;;;26.88;19.60;;;0.90;99.90;;;;;;5034598;28;20026;-55
2023/01/20 10:11:52;;;;;;;24.40;18.38;;;0.90;99.90;;;;;;5034661;28;20083;-56
2023/01/20 10:14:33;;;;;;;23.25;17.35;;;0.90;99.90;;;;;;5035015;28;20483;-57
2023/01/20 10:17:17;;;;;;;30.75;18.48;;;0.90;99.90;;;;;;5034798;28;20033;-58
2023/01/20 10:19:57;;;;;;;22.00;17.90;;;1.00;99.90;;;;;;5034280;28;20033;-56
2023/01/20 10:22:40;;;;;;;22.35;16.70;;;1.00;99.90;;;;;;5034458;28;20408;-66
2023/01/20 10:25:27;;;;;;;24.48;17.67;;;1.20;99.90;;;;;;5034332;28;20021;-53
2023/01/20 10:27:55;;;;;;;26.55;18.27;;;1.10;99.90;;;;;;5034034;28;20481;-53
2023/01/20 10:30:29;;;;;;;25.27;18.67;;;1.20;99.90;;;;;;5034093;28;20120;-54
2023/01/20 10:32:57;;;;;;;22.05;17.27;;;1.30;99.90;;;;;;5033880;28;20564;-54
2023/01/20 10:35:29;;;;;;;22.92;17.90;;;1.40;99.90;;;;;;5033689;28;20031;-49
2023/01/20 10:37:57;;;;;;;24.48;18.17;;;1.40;99.90;;;;;;5034118;28;20021;-54
2023/01/20 10:40:22;;;;;;;25.90;18.63;;;1.30;99.90;;;;;;5034013;28;20022;-58
2023/01/20 10:42:57;;;;;;;28.13;18.75;;;1.40;99.90;;;;;;5033311;28;20402;-55
2023/01/20 10:45:41;;;;;;;24.25;18.00;;;1.40;99.90;;;;;;5033747;28;20032;-53
2023/01/20 10:48:10;;;;;;;33.40;20.83;;;1.40;99.90;;;;;;5034139;28;20059;-57
2023/01/20 10:51:08;;;;;;;29.33;20.10;;;1.10;99.90;;;;;;5034028;28;20038;-52
2023/01/20 10:53:44;;;;;;;21.48;16.35;;;1.20;99.90;;;;;;5033767;28;20041;-52
2023/01/20 10:56:34;;;;;;;24.23;18.05;;;1.30;99.90;;;;;;5033607;28;20591;-52
2023/01/20 10:59:07;;;;;;;27.40;19.35;;;1.20;99.90;;;;;;5030918;28;20026;-58
2023/01/20 11:01:34;;;;;;;24.83;17.73;;;1.30;99.90;;;;;;5033692;28;20025;-54
2023/01/20 11:04:00;;;;;;;22.50;16.40;;;1.40;99.90;;;;;;5033737;28;20030;-54
2023/01/20 11:06:26;;;;;;;20.67;15.68;;;1.40;99.90;;;;;;5034328;28;20026;-52
2023/01/20 11:08:52;;;;;;;19.25;15.45;;;1.40;99.90;;;;;;5033716;28;20017;-50
2023/01/20 11:11:24;;;;;;;18.77;15.60;;;1.10;99.90;;;;;;5033909;28;20021;-55
2023/01/20 11:13:51;;;;;;;21.02;16.70;;;1.40;99.90;;;;;;5033586;28;20025;-51
2023/01/20 11:16:24;;;;;;;21.60;15.18;;;1.40;99.90;;;;;;5033079;28;20094;-56
2023/01/20 11:18:59;;;;;;;20.58;15.07;;;1.40;99.90;;;;;;5033593;28;20029;-50
2023/01/20 11:21:30;;;;;;;18.40;14.32;;;1.40;99.90;;;;;;5008004;28;20042;-51
2023/01/20 11:23:57;;;;;;;18.98;14.48;;;1.40;99.90;;;;;;5002534;28;20476;-53
2023/01/20 11:26:36;;;;;;;25.23;15.95;;;1.40;99.90;;;;;;5002169;28;20092;-54
2023/01/20 11:29:08;;;;;;;32.10;26.48;;;1.20;99.90;;;;;;5002479;28;20065;-51
2023/01/20 11:31:46;;;;;;;20.77;15.00;;;0.90;99.90;;;;;;5002609;28;20099;-50
2023/01/20 11:34:35;;;;;;;18.85;14.85;;;1.00;99.90;;;;;;5002826;28;20034;-50
2023/01/20 11:37:03;;;;;;;20.60;15.05;;;1.20;99.90;;;;;;5001719;28;20026;-52
2023/01/20 11:39:33;;;;;;;21.85;14.77;;;1.30;99.90;;;;;;5002606;28;20048;-54
2023/01/20 11:42:19;;;;;;;25.58;15.85;;;1.50;99.90;;;;;;5002355;28;20037;-51
2023/01/20 11:44:59;;;;;;;20.23;14.48;;;1.50;99.90;;;;;;5002690;28;20361;-51
2023/01/20 11:47:33;;;;;;;21.98;14.32;;;1.50;99.90;;;;;;5002220;28;20401;-52
2023/01/20 11:50:08;;;;;;;20.30;14.98;;;1.40;99.90;;;;;;5017262;28;20489;-56
2023/01/20 11:52:34;;;;;;;18.65;14.50;;;1.50;99.90;;;;;;5003015;28;20080;-55
2023/01/20 11:55:20;;;;;;;18.15;13.50;;;1.40;99.90;;;;;;5001834;28;20038;-56
2023/01/20 11:58:03;;;;;;;24.95;14.45;;;1.50;99.90;;;;;;5002454;28;20036;-52
2023/01/20 12:00:40;;;;;;;16.33;12.90;;;1.30;99.90;;;;;;5002710;28;20094;-55
2023/01/20 12:03:09;;;;;;;16.65;12.15;;;1.30;99.90;;;;;;5002462;28;20268;-56
2023/01/20 12:06:17;;;;;;;13.60;11.00;;;1.20;99.90;;;;;;5002836;28;20072;-58
2023/01/20 12:08:54;;;;;;;15.57;12.00;;;1.50;99.90;;;;;;5000808;28;20106;-55
2023/01/20 12:11:44;;;;;;;16.70;11.95;;;1.50;99.90;;;;;;5001037;28;20042;-58
2023/01/20 12:14:19;;;;;;;14.35;11.50;;;1.60;99.90;;;;;;5001850;28;20488;-57
2023/01/20 12:17:07;;;;;;;15.02;11.98;;;1.80;99.90;;;;;;5002788;28;20452;-56
2023/01/20 12:19:55;;;;;;;15.15;11.68;;;1.60;99.90;;;;;;4980737;28;20045;-56
2023/01/20 12:22:26;;;;;;;19.13;12.85;;;1.70;99.90;;;;;;5002404;28;20029;-54
2023/01/20 12:25:07;;;;;;;15.40;12.48;;;1.70;99.90;;;;;;5001754;28;20409;-54
2023/01/20 12:27:35;;;;;;;15.68;12.50;;;1.60;99.90;;;;;;5001307;28;20042;-58
2023/01/20 12:30:13;;;;;;;21.48;14.40;;;1.60;99.90;;;;;;5001821;28;20465;-57
2023/01/20 12:32:39;;;;;;;14.88;12.48;;;1.60;99.90;;;;;;5001844;28;20087;-56
2023/01/20 12:35:09;;;;;;;17.38;12.65;;;1.60;99.90;;;;;;5014400;28;20033;-59
2023/01/20 12:38:00;;;;;;;17.50;13.23;;;1.50;99.90;;;;;;5020807;28;20033;-55
2023/01/20 12:40:41;;;;;;;17.17;12.48;;;1.70;99.90;;;;;;5020514;28;20044;-56
2023/01/20 12:43:28;;;;;;;20.52;12.80;;;1.70;99.90;;;;;;5011225;28;20285;-57
2023/01/20 12:46:27;;;;;;;19.13;13.43;;;1.70;99.90;;;;;;5001360;28;20053;-58
2023/01/20 12:49:20;;;;;;;16.73;13.27;;;1.30;99.90;;;;;;5002047;28;20030;-58
2023/01/20 12:52:08;;;;;;;19.63;12.88;;;1.50;99.90;;;;;;5001551;28;20117;-55
2023/01/20 12:54:37;;;;;;;14.90;12.13;;;1.50;99.90;;;;;;5001956;28;20030;-57
2023/01/20 12:57:14;;;;;;;16.40;12.55;;;1.30;99.90;;;;;;5016698;28;20033;-55
2023/01/20 13:00:08;;;;;;;19.63;13.27;;;1.50;99.90;;;;;;5000497;28;20048;-56